KREO/REO METAR and TAF weather

Enter ICAO airport designator
Station Type Date Time Source
KREO METAR 2021/09/27 07:52 UTC NOAA

KREO 270752Z AUTO 24017G24KT 19/M08 A2996 RMK AO1 SLP102 T01891078


Station Type Date Time Source
KREO Decoded METAR 2021/09/27 07:52 UTC NOAA

ROME, OR, United States (KREO) 42-35N 117-52W 1235M
Sep 27, 2021 - 03:52 AM EDT / 2021.09.27 0752 UTC
Wind: from the WSW (240 degrees) at 20 MPH (17 KT) gusting to 28 MPH (24 KT):0
Temperature: 66.0 F (18.9 C)
Dew Point: 18.0 F (-7.8 C)
Relative Humidity: 15%
Pressure (altimeter): 29.96 in. Hg (1014 hPa)
ob: KREO 270752Z AUTO 24017G24KT 19/M08 A2996 RMK AO1 SLP102 T01891078
cycle: 8

Station Type Date Time Source
KREO TAF UTC NOAA

Error!

Example: see airport list